sensor_id;sensor_type;location;lat;lon;timestamp;temperature;humidity
66213;SHT31;53015;50.046;8.238;2023-05-31T00:02:00;17.32;57.04
66213;SHT31;53015;50.046;8.238;2023-05-31T00:04:26;17.21;57.41
66213;SHT31;53015;50.046;8.238;2023-05-31T00:06:53;17.18;57.47
66213;SHT31;53015;50.046;8.238;2023-05-31T00:09:19;17.15;57.65
66213;SHT31;53015;50.046;8.238;2023-05-31T00:11:45;17.18;57.54
66213;SHT31;53015;50.046;8.238;2023-05-31T00:14:10;17.10;57.82
66213;SHT31;53015;50.046;8.238;2023-05-31T00:16:35;17.04;58.14
66213;SHT31;53015;50.046;8.238;2023-05-31T00:19:01;16.98;58.19
66213;SHT31;53015;50.046;8.238;2023-05-31T00:21:27;17.08;57.90
66213;SHT31;53015;50.046;8.238;2023-05-31T00:23:54;17.04;58.02
66213;SHT31;53015;50.046;8.238;2023-05-31T00:26:19;17.02;58.07
66213;SHT31;53015;50.046;8.238;2023-05-31T00:28:45;16.98;58.24
66213;SHT31;53015;50.046;8.238;2023-05-31T00:31:10;16.94;58.32
66213;SHT31;53015;50.046;8.238;2023-05-31T00:33:36;16.95;58.28
66213;SHT31;53015;50.046;8.238;2023-05-31T00:36:02;16.92;58.23
66213;SHT31;53015;50.046;8.238;2023-05-31T00:38:28;16.98;58.01
66213;SHT31;53015;50.046;8.238;2023-05-31T00:40:55;16.89;58.37
66213;SHT31;53015;50.046;8.238;2023-05-31T00:43:20;16.91;58.40
66213;SHT31;53015;50.046;8.238;2023-05-31T00:45:46;16.85;58.70
66213;SHT31;53015;50.046;8.238;2023-05-31T00:48:11;16.77;58.72
66213;SHT31;53015;50.046;8.238;2023-05-31T00:50:37;16.71;58.99
66213;SHT31;53015;50.046;8.238;2023-05-31T00:53:03;16.83;58.85
66213;SHT31;53015;50.046;8.238;2023-05-31T00:55:30;16.71;58.98
66213;SHT31;53015;50.046;8.238;2023-05-31T00:57:57;16.75;58.95
66213;SHT31;53015;50.046;8.238;2023-05-31T01:00:23;16.74;59.08
66213;SHT31;53015;50.046;8.238;2023-05-31T01:02:50;16.75;58.96
66213;SHT31;53015;50.046;8.238;2023-05-31T01:05:16;16.74;59.01
66213;SHT31;53015;50.046;8.238;2023-05-31T01:07:41;16.66;59.30
66213;SHT31;53015;50.046;8.238;2023-05-31T01:10:07;16.74;59.14
66213;SHT31;53015;50.046;8.238;2023-05-31T01:12:49;16.80;58.87
66213;SHT31;53015;50.046;8.238;2023-05-31T01:15:20;16.74;59.17
66213;SHT31;53015;50.046;8.238;2023-05-31T01:17:53;16.63;59.45
66213;SHT31;53015;50.046;8.238;2023-05-31T01:20:21;16.75;59.06
66213;SHT31;53015;50.046;8.238;2023-05-31T01:23:00;16.75;59.10
66213;SHT31;53015;50.046;8.238;2023-05-31T01:25:35;16.73;59.09
66213;SHT31;53015;50.046;8.238;2023-05-31T01:28:03;16.73;59.10
66213;SHT31;53015;50.046;8.238;2023-05-31T01:30:32;16.60;59.41
66213;SHT31;53015;50.046;8.238;2023-05-31T01:32:59;16.53;59.79
66213;SHT31;53015;50.046;8.238;2023-05-31T01:35:25;16.49;59.85
66213;SHT31;53015;50.046;8.238;2023-05-31T01:37:50;16.45;59.81
66213;SHT31;53015;50.046;8.238;2023-05-31T01:40:16;16.52;59.58
66213;SHT31;53015;50.046;8.238;2023-05-31T01:42:43;16.43;59.82
66213;SHT31;53015;50.046;8.238;2023-05-31T01:45:12;16.43;59.87
66213;SHT31;53015;50.046;8.238;2023-05-31T01:47:39;16.46;59.88
66213;SHT31;53015;50.046;8.238;2023-05-31T01:50:07;16.33;60.06
66213;SHT31;53015;50.046;8.238;2023-05-31T01:52:34;16.28;60.38
66213;SHT31;53015;50.046;8.238;2023-05-31T01:55:00;16.19;60.46
66213;SHT31;53015;50.046;8.238;2023-05-31T01:57:26;16.25;60.50
66213;SHT31;53015;50.046;8.238;2023-05-31T01:59:53;16.19;60.80
66213;SHT31;53015;50.046;8.238;2023-05-31T02:02:20;16.12;60.82
66213;SHT31;53015;50.046;8.238;2023-05-31T02:04:46;16.10;61.05
66213;SHT31;53015;50.046;8.238;2023-05-31T02:07:11;16.20;60.54
66213;SHT31;53015;50.046;8.238;2023-05-31T02:09:37;16.16;60.71
66213;SHT31;53015;50.046;8.238;2023-05-31T02:12:03;16.10;60.73
66213;SHT31;53015;50.046;8.238;2023-05-31T02:14:28;16.13;60.91
66213;SHT31;53015;50.046;8.238;2023-05-31T02:16:54;16.04;61.03
66213;SHT31;53015;50.046;8.238;2023-05-31T02:19:21;16.05;60.85
66213;SHT31;53015;50.046;8.238;2023-05-31T02:21:46;16.01;60.92
66213;SHT31;53015;50.046;8.238;2023-05-31T02:24:11;16.13;60.40
66213;SHT31;53015;50.046;8.238;2023-05-31T02:26:37;16.08;60.43
66213;SHT31;53015;50.046;8.238;2023-05-31T02:29:02;15.88;61.02
66213;SHT31;53015;50.046;8.238;2023-05-31T02:31:28;15.91;61.42
66213;SHT31;53015;50.046;8.238;2023-05-31T02:33:53;15.92;60.95
66213;SHT31;53015;50.046;8.238;2023-05-31T02:36:20;15.85;61.10
66213;SHT31;53015;50.046;8.238;2023-05-31T02:38:46;15.78;61.52
66213;SHT31;53015;50.046;8.238;2023-05-31T02:41:11;15.81;61.63
66213;SHT31;53015;50.046;8.238;2023-05-31T02:43:37;15.91;61.09
66213;SHT31;53015;50.046;8.238;2023-05-31T02:46:02;15.91;61.06
66213;SHT31;53015;50.046;8.238;2023-05-31T02:48:28;15.91;60.95
66213;SHT31;53015;50.046;8.238;2023-05-31T02:50:53;15.81;62.69
66213;SHT31;53015;50.046;8.238;2023-05-31T02:53:20;15.67;62.51
66213;SHT31;53015;50.046;8.238;2023-05-31T02:55:45;15.68;63.83
66213;SHT31;53015;50.046;8.238;2023-05-31T02:58:11;15.47;63.50
66213;SHT31;53015;50.046;8.238;2023-05-31T03:00:36;15.37;63.21
66213;SHT31;53015;50.046;8.238;2023-05-31T03:03:02;15.33;64.04
66213;SHT31;53015;50.046;8.238;2023-05-31T03:05:27;15.27;65.07
66213;SHT31;53015;50.046;8.238;2023-05-31T03:07:53;15.25;64.15
66213;SHT31;53015;50.046;8.238;2023-05-31T03:10:19;15.19;63.99
66213;SHT31;53015;50.046;8.238;2023-05-31T03:12:45;15.20;63.26
66213;SHT31;53015;50.046;8.238;2023-05-31T03:15:10;15.29;62.99
66213;SHT31;53015;50.046;8.238;2023-05-31T03:17:36;15.29;63.80
66213;SHT31;53015;50.046;8.238;2023-05-31T03:20:01;15.39;62.51
66213;SHT31;53015;50.046;8.238;2023-05-31T03:22:27;15.42;62.40
66213;SHT31;53015;50.046;8.238;2023-05-31T03:24:52;15.43;63.15
66213;SHT31;53015;50.046;8.238;2023-05-31T03:27:19;15.53;61.90
66213;SHT31;53015;50.046;8.238;2023-05-31T03:29:44;15.72;61.24
66213;SHT31;53015;50.046;8.238;2023-05-31T03:32:10;15.68;61.24
66213;SHT31;53015;50.046;8.238;2023-05-31T03:34:35;15.74;61.15
66213;SHT31;53015;50.046;8.238;2023-05-31T03:37:01;15.68;61.26
66213;SHT31;53015;50.046;8.238;2023-05-31T03:39:26;15.71;61.08
66213;SHT31;53015;50.046;8.238;2023-05-31T03:41:52;15.80;61.57
66213;SHT31;53015;50.046;8.238;2023-05-31T03:44:19;15.77;61.14
66213;SHT31;53015;50.046;8.238;2023-05-31T03:46:44;15.63;61.78
66213;SHT31;53015;50.046;8.238;2023-05-31T03:49:10;15.61;61.43
66213;SHT31;53015;50.046;8.238;2023-05-31T03:51:35;15.70;61.28
66213;SHT31;53015;50.046;8.238;2023-05-31T03:54:01;15.68;61.56
66213;SHT31;53015;50.046;8.238;2023-05-31T03:56:26;15.67;61.44
66213;SHT31;53015;50.046;8.238;2023-05-31T03:58:52;15.58;61.62
66213;SHT31;53015;50.046;8.238;2023-05-31T04:01:18;15.80;60.88
66213;SHT31;53015;50.046;8.238;2023-05-31T04:03:44;15.81;61.00
66213;SHT31;53015;50.046;8.238;2023-05-31T04:06:09;15.77;61.12
66213;SHT31;53015;50.046;8.238;2023-05-31T04:08:35;15.92;60.49
66213;SHT31;53015;50.046;8.238;2023-05-31T04:11:00;15.92;60.44
66213;SHT31;53015;50.046;8.238;2023-05-31T04:13:26;16.05;59.97
66213;SHT31;53015;50.046;8.238;2023-05-31T04:15:51;15.99;60.13
66213;SHT31;53015;50.046;8.238;2023-05-31T04:18:18;15.95;60.54
66213;SHT31;53015;50.046;8.238;2023-05-31T04:20:44;15.94;60.44
66213;SHT31;53015;50.046;8.238;2023-05-31T04:23:09;15.95;60.21
66213;SHT31;53015;50.046;8.238;2023-05-31T04:25:34;16.02;60.23
66213;SHT31;53015;50.046;8.238;2023-05-31T04:28:00;16.04;60.05
66213;SHT31;53015;50.046;8.238;2023-05-31T04:30:25;16.05;60.08
66213;SHT31;53015;50.046;8.238;2023-05-31T04:32:51;16.22;59.17
66213;SHT31;53015;50.046;8.238;2023-05-31T04:35:18;16.23;59.20
66213;SHT31;53015;50.046;8.238;2023-05-31T04:37:43;16.22;59.44
66213;SHT31;53015;50.046;8.238;2023-05-31T04:40:09;16.22;59.47
66213;SHT31;53015;50.046;8.238;2023-05-31T04:42:35;16.23;59.50
66213;SHT31;53015;50.046;8.238;2023-05-31T04:45:00;16.36;58.89
66213;SHT31;53015;50.046;8.238;2023-05-31T04:47:26;16.46;58.86
66213;SHT31;53015;50.046;8.238;2023-05-31T04:49:52;16.46;58.61
66213;SHT31;53015;50.046;8.238;2023-05-31T04:52:18;16.40;58.94
66213;SHT31;53015;50.046;8.238;2023-05-31T04:54:44;16.30;59.01
66213;SHT31;53015;50.046;8.238;2023-05-31T04:57:09;16.25;59.85
66213;SHT31;53015;50.046;8.238;2023-05-31T04:59:35;16.43;58.44
66213;SHT31;53015;50.046;8.238;2023-05-31T05:02:00;16.60;57.63
66213;SHT31;53015;50.046;8.238;2023-05-31T05:04:26;16.59;58.24
66213;SHT31;53015;50.046;8.238;2023-05-31T05:06:51;16.52;58.00
66213;SHT31;53015;50.046;8.238;2023-05-31T05:09:18;16.71;57.74
66213;SHT31;53015;50.046;8.238;2023-05-31T05:11:43;16.71;58.04
66213;SHT31;53015;50.046;8.238;2023-05-31T05:14:09;16.74;57.94
66213;SHT31;53015;50.046;8.238;2023-05-31T05:16:34;16.78;57.76
66213;SHT31;53015;50.046;8.238;2023-05-31T05:19:00;16.77;58.21
66213;SHT31;53015;50.046;8.238;2023-05-31T05:21:25;16.84;58.07
66213;SHT31;53015;50.046;8.238;2023-05-31T05:23:51;16.78;58.32
66213;SHT31;53015;50.046;8.238;2023-05-31T05:26:17;16.91;58.43
66213;SHT31;53015;50.046;8.238;2023-05-31T05:28:43;16.92;58.16
66213;SHT31;53015;50.046;8.238;2023-05-31T05:31:08;17.02;57.82
66213;SHT31;53015;50.046;8.238;2023-05-31T05:33:34;17.07;58.12
66213;SHT31;53015;50.046;8.238;2023-05-31T05:35:59;17.12;57.64
66213;SHT31;53015;50.046;8.238;2023-05-31T05:38:24;17.16;56.62
66213;SHT31;53015;50.046;8.238;2023-05-31T05:40:50;17.33;56.20
66213;SHT31;53015;50.046;8.238;2023-05-31T05:43:17;17.42;55.61
66213;SHT31;53015;50.046;8.238;2023-05-31T05:45:42;17.51;55.18
66213;SHT31;53015;50.046;8.238;2023-05-31T05:48:08;17.59;55.36
66213;SHT31;53015;50.046;8.238;2023-05-31T05:50:33;17.60;55.37
66213;SHT31;53015;50.046;8.238;2023-05-31T05:52:59;17.73;54.79
66213;SHT31;53015;50.046;8.238;2023-05-31T05:55:24;17.81;53.87
66213;SHT31;53015;50.046;8.238;2023-05-31T05:57:50;17.90;53.85
66213;SHT31;53015;50.046;8.238;2023-05-31T06:00:17;18.00;53.45
66213;SHT31;53015;50.046;8.238;2023-05-31T06:02:43;18.05;52.74
66213;SHT31;53015;50.046;8.238;2023-05-31T06:05:09;18.11;52.06
66213;SHT31;53015;50.046;8.238;2023-05-31T06:07:34;18.24;52.15
66213;SHT31;53015;50.046;8.238;2023-05-31T06:10:00;18.24;51.96
66213;SHT31;53015;50.046;8.238;2023-05-31T06:12:26;18.29;52.60
66213;SHT31;53015;50.046;8.238;2023-05-31T06:14:51;18.36;51.41
66213;SHT31;53015;50.046;8.238;2023-05-31T06:17:18;18.48;51.66
66213;SHT31;53015;50.046;8.238;2023-05-31T06:19:44;18.57;51.64
66213;SHT31;53015;50.046;8.238;2023-05-31T06:22:09;18.56;52.81
66213;SHT31;53015;50.046;8.238;2023-05-31T06:24:35;18.61;51.44
66213;SHT31;53015;50.046;8.238;2023-05-31T06:27:00;18.71;51.20
66213;SHT31;53015;50.046;8.238;2023-05-31T06:29:25;18.84;50.98
66213;SHT31;53015;50.046;8.238;2023-05-31T06:31:51;18.86;50.91
66213;SHT31;53015;50.046;8.238;2023-05-31T06:34:18;18.88;50.14
66213;SHT31;53015;50.046;8.238;2023-05-31T06:36:43;18.96;50.49
66213;SHT31;53015;50.046;8.238;2023-05-31T06:39:09;19.03;50.49
66213;SHT31;53015;50.046;8.238;2023-05-31T06:41:35;19.04;50.72
66213;SHT31;53015;50.046;8.238;2023-05-31T06:44:01;19.12;50.49
66213;SHT31;53015;50.046;8.238;2023-05-31T06:46:27;19.19;50.03
66213;SHT31;53015;50.046;8.238;2023-05-31T06:48:52;19.39;50.60
66213;SHT31;53015;50.046;8.238;2023-05-31T06:51:19;19.38;49.21
66213;SHT31;53015;50.046;8.238;2023-05-31T06:53:45;19.43;49.57
66213;SHT31;53015;50.046;8.238;2023-05-31T06:56:10;19.53;50.54
66213;SHT31;53015;50.046;8.238;2023-05-31T06:58:36;19.53;49.03
66213;SHT31;53015;50.046;8.238;2023-05-31T07:01:01;19.70;49.50
66213;SHT31;53015;50.046;8.238;2023-05-31T07:03:26;19.74;48.94
66213;SHT31;53015;50.046;8.238;2023-05-31T07:05:52;19.80;48.61
66213;SHT31;53015;50.046;8.238;2023-05-31T07:08:19;19.93;49.15
66213;SHT31;53015;50.046;8.238;2023-05-31T07:10:44;19.98;49.32
66213;SHT31;53015;50.046;8.238;2023-05-31T07:13:10;20.03;49.24
66213;SHT31;53015;50.046;8.238;2023-05-31T07:15:35;20.01;48.44
66213;SHT31;53015;50.046;8.238;2023-05-31T07:18:01;20.01;48.64
66213;SHT31;53015;50.046;8.238;2023-05-31T07:20:26;20.16;48.52
66213;SHT31;53015;50.046;8.238;2023-05-31T07:22:52;20.18;47.80
66213;SHT31;53015;50.046;8.238;2023-05-31T07:25:19;20.24;47.27
66213;SHT31;53015;50.046;8.238;2023-05-31T07:27:44;20.29;46.06
66213;SHT31;53015;50.046;8.238;2023-05-31T07:30:10;20.32;46.92
66213;SHT31;53015;50.046;8.238;2023-05-31T07:32:36;20.22;47.28
66213;SHT31;53015;50.046;8.238;2023-05-31T07:35:02;20.28;47.54
66213;SHT31;53015;50.046;8.238;2023-05-31T07:37:27;20.22;46.54
66213;SHT31;53015;50.046;8.238;2023-05-31T07:39:53;20.38;46.87
66213;SHT31;53015;50.046;8.238;2023-05-31T07:42:19;20.22;47.33
66213;SHT31;53015;50.046;8.238;2023-05-31T07:44:45;20.34;46.96
66213;SHT31;53015;50.046;8.238;2023-05-31T07:47:10;20.44;47.12
66213;SHT31;53015;50.046;8.238;2023-05-31T07:49:36;20.49;47.43
66213;SHT31;53015;50.046;8.238;2023-05-31T07:52:01;20.63;47.29
66213;SHT31;53015;50.046;8.238;2023-05-31T07:54:27;20.61;47.45
66213;SHT31;53015;50.046;8.238;2023-05-31T07:56:52;20.66;46.75
66213;SHT31;53015;50.046;8.238;2023-05-31T07:59:19;20.69;47.39
66213;SHT31;53015;50.046;8.238;2023-05-31T08:01:45;20.72;47.17
66213;SHT31;53015;50.046;8.238;2023-05-31T08:04:11;20.84;46.74
66213;SHT31;53015;50.046;8.238;2023-05-31T08:06:36;20.71;46.07
66213;SHT31;53015;50.046;8.238;2023-05-31T08:09:02;20.79;46.82
66213;SHT31;53015;50.046;8.238;2023-05-31T08:11:28;20.83;46.26
66213;SHT31;53015;50.046;8.238;2023-05-31T08:13:53;21.01;46.73
66213;SHT31;53015;50.046;8.238;2023-05-31T08:16:20;21.04;47.07
66213;SHT31;53015;50.046;8.238;2023-05-31T08:18:45;21.17;47.85
66213;SHT31;53015;50.046;8.238;2023-05-31T08:21:11;21.03;46.22
66213;SHT31;53015;50.046;8.238;2023-05-31T08:23:36;21.11;46.37
66213;SHT31;53015;50.046;8.238;2023-05-31T08:26:02;21.21;46.80
66213;SHT31;53015;50.046;8.238;2023-05-31T08:28:27;21.17;45.91
66213;SHT31;53015;50.046;8.238;2023-05-31T08:30:53;21.08;46.24
66213;SHT31;53015;50.046;8.238;2023-05-31T08:33:19;21.21;46.36
66213;SHT31;53015;50.046;8.238;2023-05-31T08:35:45;21.35;46.33
66213;SHT31;53015;50.046;8.238;2023-05-31T08:38:10;21.32;45.61
66213;SHT31;53015;50.046;8.238;2023-05-31T08:40:36;21.32;46.14
66213;SHT31;53015;50.046;8.238;2023-05-31T08:43:04;21.41;46.26
66213;SHT31;53015;50.046;8.238;2023-05-31T08:45:30;21.32;46.30
66213;SHT31;53015;50.046;8.238;2023-05-31T08:48:02;21.47;46.72
66213;SHT31;53015;50.046;8.238;2023-05-31T08:50:32;21.62;46.86
66213;SHT31;53015;50.046;8.238;2023-05-31T08:52:58;21.73;46.75
66213;SHT31;53015;50.046;8.238;2023-05-31T08:55:24;21.41;45.45
66213;SHT31;53015;50.046;8.238;2023-05-31T08:57:50;21.52;45.45
66213;SHT31;53015;50.046;8.238;2023-05-31T09:00:17;21.86;46.38
66213;SHT31;53015;50.046;8.238;2023-05-31T09:02:43;21.83;44.94
66213;SHT31;53015;50.046;8.238;2023-05-31T09:05:09;21.96;45.85
66213;SHT31;53015;50.046;8.238;2023-05-31T09:07:36;21.92;44.37
66213;SHT31;53015;50.046;8.238;2023-05-31T09:10:01;21.72;44.26
66213;SHT31;53015;50.046;8.238;2023-05-31T09:12:27;21.90;45.02
66213;SHT31;53015;50.046;8.238;2023-05-31T09:14:53;21.99;45.28
66213;SHT31;53015;50.046;8.238;2023-05-31T09:17:18;22.14;44.48
66213;SHT31;53015;50.046;8.238;2023-05-31T09:19:49;22.34;45.55
66213;SHT31;53015;50.046;8.238;2023-05-31T09:22:15;22.40;44.46
66213;SHT31;53015;50.046;8.238;2023-05-31T09:24:49;22.29;43.46
66213;SHT31;53015;50.046;8.238;2023-05-31T09:27:14;22.27;45.05
66213;SHT31;53015;50.046;8.238;2023-05-31T09:29:42;22.24;45.05
66213;SHT31;53015;50.046;8.238;2023-05-31T09:32:09;22.41;44.83
66213;SHT31;53015;50.046;8.238;2023-05-31T09:34:34;22.25;43.96
66213;SHT31;53015;50.046;8.238;2023-05-31T09:37:00;22.20;44.29
66213;SHT31;53015;50.046;8.238;2023-05-31T09:39:25;22.37;44.92
66213;SHT31;53015;50.046;8.238;2023-05-31T09:41:52;22.25;43.95
66213;SHT31;53015;50.046;8.238;2023-05-31T09:44:18;22.29;43.91
66213;SHT31;53015;50.046;8.238;2023-05-31T09:46:45;22.14;43.63
66213;SHT31;53015;50.046;8.238;2023-05-31T09:49:10;22.11;44.04
66213;SHT31;53015;50.046;8.238;2023-05-31T09:51:36;22.37;43.59
66213;SHT31;53015;50.046;8.238;2023-05-31T09:54:03;22.71;44.26
66213;SHT31;53015;50.046;8.238;2023-05-31T09:56:36;22.73;43.82
66213;SHT31;53015;50.046;8.238;2023-05-31T09:59:04;22.48;43.78
66213;SHT31;53015;50.046;8.238;2023-05-31T10:01:29;22.38;44.15
66213;SHT31;53015;50.046;8.238;2023-05-31T10:03:56;22.24;44.22
66213;SHT31;53015;50.046;8.238;2023-05-31T10:06:22;22.43;44.09
66213;SHT31;53015;50.046;8.238;2023-05-31T10:08:49;22.48;43.25
66213;SHT31;53015;50.046;8.238;2023-05-31T10:11:16;22.68;42.26
66213;SHT31;53015;50.046;8.238;2023-05-31T10:13:44;22.73;41.62
66213;SHT31;53015;50.046;8.238;2023-05-31T10:16:14;22.78;42.18
66213;SHT31;53015;50.046;8.238;2023-05-31T10:18:44;22.99;43.36
66213;SHT31;53015;50.046;8.238;2023-05-31T10:21:12;22.69;41.69
66213;SHT31;53015;50.046;8.238;2023-05-31T10:23:43;22.78;42.00
66213;SHT31;53015;50.046;8.238;2023-05-31T10:26:12;23.02;41.32
66213;SHT31;53015;50.046;8.238;2023-05-31T10:28:44;22.93;42.22
66213;SHT31;53015;50.046;8.238;2023-05-31T10:31:12;22.92;40.93
66213;SHT31;53015;50.046;8.238;2023-05-31T10:33:45;23.02;41.42
66213;SHT31;53015;50.046;8.238;2023-05-31T10:36:13;23.28;42.52
66213;SHT31;53015;50.046;8.238;2023-05-31T10:38:43;23.41;40.61
66213;SHT31;53015;50.046;8.238;2023-05-31T10:41:15;23.23;39.42
66213;SHT31;53015;50.046;8.238;2023-05-31T10:43:44;23.39;39.68
66213;SHT31;53015;50.046;8.238;2023-05-31T10:46:16;23.47;39.92
66213;SHT31;53015;50.046;8.238;2023-05-31T10:48:47;23.40;40.10
66213;SHT31;53015;50.046;8.238;2023-05-31T10:51:16;23.26;40.16
66213;SHT31;53015;50.046;8.238;2023-05-31T10:53:43;23.24;39.59
66213;SHT31;53015;50.046;8.238;2023-05-31T10:56:10;23.41;39.92
66213;SHT31;53015;50.046;8.238;2023-05-31T10:58:37;23.75;39.99
66213;SHT31;53015;50.046;8.238;2023-05-31T11:01:07;23.88;39.62
66213;SHT31;53015;50.046;8.238;2023-05-31T11:03:35;23.67;40.23
66213;SHT31;53015;50.046;8.238;2023-05-31T11:06:02;23.88;39.81
66213;SHT31;53015;50.046;8.238;2023-05-31T11:08:28;23.98;39.96
66213;SHT31;53015;50.046;8.238;2023-05-31T11:11:25;23.88;39.33
66213;SHT31;53015;50.046;8.238;2023-05-31T11:13:59;23.92;39.38
66213;SHT31;53015;50.046;8.238;2023-05-31T11:16:24;23.95;38.57
66213;SHT31;53015;50.046;8.238;2023-05-31T11:19:01;24.04;38.67
66213;SHT31;53015;50.046;8.238;2023-05-31T11:21:45;24.20;39.00
66213;SHT31;53015;50.046;8.238;2023-05-31T11:24:25;24.40;38.98
66213;SHT31;53015;50.046;8.238;2023-05-31T11:26:54;24.54;38.78
66213;SHT31;53015;50.046;8.238;2023-05-31T11:29:19;24.49;38.96
66213;SHT31;53015;50.046;8.238;2023-05-31T11:32:00;24.46;38.54
66213;SHT31;53015;50.046;8.238;2023-05-31T11:34:28;24.60;38.78
66213;SHT31;53015;50.046;8.238;2023-05-31T11:36:56;24.44;37.07
66213;SHT31;53015;50.046;8.238;2023-05-31T11:39:22;24.49;38.13
66213;SHT31;53015;50.046;8.238;2023-05-31T11:41:48;24.51;37.39
66213;SHT31;53015;50.046;8.238;2023-05-31T11:44:14;24.47;37.46
66213;SHT31;53015;50.046;8.238;2023-05-31T11:46:44;24.32;38.24
66213;SHT31;53015;50.046;8.238;2023-05-31T11:49:11;24.51;38.21
66213;SHT31;53015;50.046;8.238;2023-05-31T11:51:41;24.47;37.99
66213;SHT31;53015;50.046;8.238;2023-05-31T11:54:07;24.59;38.94
66213;SHT31;53015;50.046;8.238;2023-05-31T11:56:33;24.75;38.67
66213;SHT31;53015;50.046;8.238;2023-05-31T11:58:58;24.74;38.42
66213;SHT31;53015;50.046;8.238;2023-05-31T12:01:24;24.82;38.99
66213;SHT31;53015;50.046;8.238;2023-05-31T12:03:57;24.94;38.11
66213;SHT31;53015;50.046;8.238;2023-05-31T12:06:23;25.12;37.62
66213;SHT31;53015;50.046;8.238;2023-05-31T12:08:51;24.95;37.38
66213;SHT31;53015;50.046;8.238;2023-05-31T12:11:16;25.11;38.30
66213;SHT31;53015;50.046;8.238;2023-05-31T12:13:42;25.22;38.41
66213;SHT31;53015;50.046;8.238;2023-05-31T12:16:07;24.82;37.72
66213;SHT31;53015;50.046;8.238;2023-05-31T12:18:33;24.98;38.39
66213;SHT31;53015;50.046;8.238;2023-05-31T12:21:04;25.16;39.01
66213;SHT31;53015;50.046;8.238;2023-05-31T12:23:29;24.88;38.36
66213;SHT31;53015;50.046;8.238;2023-05-31T12:25:57;24.96;39.60
66213;SHT31;53015;50.046;8.238;2023-05-31T12:28:23;25.08;39.41
66213;SHT31;53015;50.046;8.238;2023-05-31T12:30:49;24.95;38.73
66213;SHT31;53015;50.046;8.238;2023-05-31T12:33:15;25.11;39.53
66213;SHT31;53015;50.046;8.238;2023-05-31T12:35:41;25.46;39.28
66213;SHT31;53015;50.046;8.238;2023-05-31T12:38:07;25.43;39.29
66213;SHT31;53015;50.046;8.238;2023-05-31T12:40:37;25.56;39.78
66213;SHT31;53015;50.046;8.238;2023-05-31T12:43:05;25.22;39.16
66213;SHT31;53015;50.046;8.238;2023-05-31T12:45:31;25.20;39.37
66213;SHT31;53015;50.046;8.238;2023-05-31T12:47:59;25.37;39.28
66213;SHT31;53015;50.046;8.238;2023-05-31T12:50:28;25.51;39.09
66213;SHT31;53015;50.046;8.238;2023-05-31T12:52:56;25.63;39.02
66213;SHT31;53015;50.046;8.238;2023-05-31T12:55:22;25.42;37.66
66213;SHT31;53015;50.046;8.238;2023-05-31T12:57:48;25.47;38.41
66213;SHT31;53015;50.046;8.238;2023-05-31T13:00:16;25.82;38.85
66213;SHT31;53015;50.046;8.238;2023-05-31T13:02:42;25.94;37.20
66213;SHT31;53015;50.046;8.238;2023-05-31T13:05:08;25.53;37.64
66213;SHT31;53015;50.046;8.238;2023-05-31T13:07:34;25.73;38.59
66213;SHT31;53015;50.046;8.238;2023-05-31T13:10:01;25.69;38.82
66213;SHT31;53015;50.046;8.238;2023-05-31T13:12:27;25.92;37.55
66213;SHT31;53015;50.046;8.238;2023-05-31T13:14:53;25.69;36.44
66213;SHT31;53015;50.046;8.238;2023-05-31T13:17:24;25.95;37.34
66213;SHT31;53015;50.046;8.238;2023-05-31T13:19:50;26.08;37.23
66213;SHT31;53015;50.046;8.238;2023-05-31T13:22:16;25.98;37.31
66213;SHT31;53015;50.046;8.238;2023-05-31T13:24:44;26.04;38.13
66213;SHT31;53015;50.046;8.238;2023-05-31T13:27:10;26.14;38.30
66213;SHT31;53015;50.046;8.238;2023-05-31T13:29:36;26.42;38.02
66213;SHT31;53015;50.046;8.238;2023-05-31T13:32:04;26.06;37.48
66213;SHT31;53015;50.046;8.238;2023-05-31T13:34:31;25.91;37.67
66213;SHT31;53015;50.046;8.238;2023-05-31T13:36:57;25.75;36.85
66213;SHT31;53015;50.046;8.238;2023-05-31T13:39:23;25.60;36.94
66213;SHT31;53015;50.046;8.238;2023-05-31T13:41:49;25.94;36.65
66213;SHT31;53015;50.046;8.238;2023-05-31T13:44:15;26.24;37.22
66213;SHT31;53015;50.046;8.238;2023-05-31T13:46:42;26.28;36.47
66213;SHT31;53015;50.046;8.238;2023-05-31T13:49:08;26.09;36.71
66213;SHT31;53015;50.046;8.238;2023-05-31T13:51:36;26.29;37.24
66213;SHT31;53015;50.046;8.238;2023-05-31T13:54:02;26.19;37.33
66213;SHT31;53015;50.046;8.238;2023-05-31T13:56:28;26.28;37.41
66213;SHT31;53015;50.046;8.238;2023-05-31T14:01:29;26.37;37.51
66213;SHT31;53015;50.046;8.238;2023-05-31T14:03:54;26.57;38.01
66213;SHT31;53015;50.046;8.238;2023-05-31T14:06:20;26.59;36.89
66213;SHT31;53015;50.046;8.238;2023-05-31T14:08:48;26.52;36.68
66213;SHT31;53015;50.046;8.238;2023-05-31T14:11:14;26.40;36.45
66213;SHT31;53015;50.046;8.238;2023-05-31T14:13:40;26.57;37.39
66213;SHT31;53015;50.046;8.238;2023-05-31T14:16:06;26.43;36.55
66213;SHT31;53015;50.046;8.238;2023-05-31T14:18:32;26.53;36.52
66213;SHT31;53015;50.046;8.238;2023-05-31T14:20:58;26.80;36.97
66213;SHT31;53015;50.046;8.238;2023-05-31T14:23:24;26.73;37.60
66213;SHT31;53015;50.046;8.238;2023-05-31T14:25:51;26.59;36.63
66213;SHT31;53015;50.046;8.238;2023-05-31T14:28:19;26.94;36.42
66213;SHT31;53015;50.046;8.238;2023-05-31T14:30:44;27.16;35.45
66213;SHT31;53015;50.046;8.238;2023-05-31T14:33:10;27.04;35.79
66213;SHT31;53015;50.046;8.238;2023-05-31T14:35:36;26.81;36.52
66213;SHT31;53015;50.046;8.238;2023-05-31T14:38:01;26.64;36.41
66213;SHT31;53015;50.046;8.238;2023-05-31T14:40:27;26.66;36.56
66213;SHT31;53015;50.046;8.238;2023-05-31T14:42:54;27.00;36.43
66213;SHT31;53015;50.046;8.238;2023-05-31T14:45:20;26.92;37.04
66213;SHT31;53015;50.046;8.238;2023-05-31T14:47:46;27.22;36.81
66213;SHT31;53015;50.046;8.238;2023-05-31T14:50:12;27.42;36.06
66213;SHT31;53015;50.046;8.238;2023-05-31T14:52:37;27.65;36.13
66213;SHT31;53015;50.046;8.238;2023-05-31T14:55:03;27.69;35.91
66213;SHT31;53015;50.046;8.238;2023-05-31T14:57:29;27.45;36.46
66213;SHT31;53015;50.046;8.238;2023-05-31T14:59:57;27.31;36.93
66213;SHT31;53015;50.046;8.238;2023-05-31T15:02:22;28.12;35.34
66213;SHT31;53015;50.046;8.238;2023-05-31T15:04:48;28.65;34.90
66213;SHT31;53015;50.046;8.238;2023-05-31T15:07:14;29.59;33.36
66213;SHT31;53015;50.046;8.238;2023-05-31T15:09:40;30.13;32.59
66213;SHT31;53015;50.046;8.238;2023-05-31T15:12:08;30.27;32.27
66213;SHT31;53015;50.046;8.238;2023-05-31T15:14:34;30.24;32.76
66213;SHT31;53015;50.046;8.238;2023-05-31T15:17:01;30.54;32.09
66213;SHT31;53015;50.046;8.238;2023-05-31T15:19:27;31.10;31.19
66213;SHT31;53015;50.046;8.238;2023-05-31T15:21:53;30.89;30.52
66213;SHT31;53015;50.046;8.238;2023-05-31T15:24:18;31.31;30.52
66213;SHT31;53015;50.046;8.238;2023-05-31T15:26:44;31.74;29.61
66213;SHT31;53015;50.046;8.238;2023-05-31T15:29:10;30.55;31.29